Time;durP1;ratioP1;P1;durP2;ratioP2;P2;SDS_P1;SDS_P2;PMS_P1;PMS_P2;Temp;Humidity;BMP_temperature;BMP_pressure;BME280_temperature;BME280_humidity;BME280_pressure;Samples;Min_cycle;Max_cycle;Signal;HPM_P1;HPM_P2
2023/12/17 00:01:21;;;;;;;18.77;12.73;;;11.00;99.90;;;;;;6209631;23;20091;-68
2023/12/17 00:04:07;;;;;;;17.63;12.00;;;11.00;99.90;;;;;;6209571;23;20004;-68
2023/12/17 00:06:54;;;;;;;19.30;12.55;;;11.00;99.90;;;;;;6208241;23;20044;-63
2023/12/17 00:09:40;;;;;;;18.02;12.18;;;11.00;99.90;;;;;;6207157;23;20008;-63
2023/12/17 00:12:26;;;;;;;18.15;11.75;;;11.10;99.90;;;;;;6209965;23;20025;-64
2023/12/17 00:15:12;;;;;;;21.80;12.10;;;11.10;99.90;;;;;;6210015;23;20009;-63
2023/12/17 00:17:57;;;;;;;17.27;11.70;;;11.10;99.90;;;;;;6209332;23;20019;-63
2023/12/17 00:20:43;;;;;;;18.75;11.90;;;11.10;99.90;;;;;;6208673;23;20005;-63
2023/12/17 00:23:29;;;;;;;21.60;12.32;;;11.10;99.90;;;;;;6208626;23;20028;-63
2023/12/17 00:26:15;;;;;;;17.75;12.40;;;11.10;99.90;;;;;;6185992;23;20005;-64
2023/12/17 00:29:01;;;;;;;18.88;12.20;;;11.10;99.90;;;;;;6208837;23;20087;-64
2023/12/17 00:31:47;;;;;;;17.55;11.75;;;11.10;99.90;;;;;;6208014;23;20008;-63
2023/12/17 00:34:33;;;;;;;17.45;12.18;;;11.10;99.90;;;;;;6207906;23;20017;-63
2023/12/17 00:37:19;;;;;;;20.10;12.52;;;11.10;99.90;;;;;;6209893;23;20098;-64
2023/12/17 00:40:06;;;;;;;18.00;11.82;;;11.10;99.90;;;;;;6208700;23;20086;-64
2023/12/17 00:42:52;;;;;;;20.00;11.90;;;11.10;99.90;;;;;;6208794;23;20371;-63
2023/12/17 00:45:38;;;;;;;19.60;11.38;;;11.10;99.90;;;;;;6207557;23;20044;-63
2023/12/17 00:48:24;;;;;;;17.55;11.88;;;11.10;99.90;;;;;;6209415;23;20127;-63
2023/12/17 00:51:11;;;;;;;16.73;11.13;;;11.10;99.90;;;;;;6189260;23;20009;-63
2023/12/17 00:53:57;;;;;;;16.88;10.88;;;11.10;99.90;;;;;;6207568;23;20020;-63
2023/12/17 00:56:43;;;;;;;16.00;10.95;;;11.10;99.90;;;;;;6211544;23;20062;-63
2023/12/17 00:59:29;;;;;;;15.73;11.38;;;11.10;99.90;;;;;;6215231;23;20070;-63
2023/12/17 01:02:15;;;;;;;18.75;11.38;;;11.10;99.90;;;;;;6238025;23;20031;-63
2023/12/17 01:05:01;;;;;;;16.23;11.45;;;11.10;99.90;;;;;;6236251;23;20016;-63
2023/12/17 01:07:47;;;;;;;16.60;12.30;;;11.10;99.90;;;;;;6239701;23;20031;-63
2023/12/17 01:10:32;;;;;;;20.17;11.82;;;11.10;99.90;;;;;;6237571;23;20011;-63
2023/12/17 01:13:19;;;;;;;15.20;10.35;;;11.10;99.90;;;;;;6218575;23;20020;-63
2023/12/17 01:16:05;;;;;;;16.70;11.65;;;11.10;99.90;;;;;;6238810;23;20261;-63
2023/12/17 01:18:51;;;;;;;16.90;11.50;;;11.10;99.90;;;;;;6239193;23;20008;-63
2023/12/17 01:21:37;;;;;;;18.45;11.52;;;11.10;99.90;;;;;;6239587;23;20019;-63
2023/12/17 01:24:23;;;;;;;17.10;12.05;;;11.10;99.90;;;;;;6218113;23;20040;-63
2023/12/17 01:27:09;;;;;;;17.38;12.23;;;11.10;99.90;;;;;;6238304;23;20096;-63
2023/12/17 01:29:55;;;;;;;16.60;11.05;;;11.10;99.90;;;;;;6236763;23;20070;-63
2023/12/17 01:32:41;;;;;;;17.45;11.95;;;11.10;99.90;;;;;;6237432;23;20134;-63
2023/12/17 01:35:27;;;;;;;18.90;11.55;;;11.10;99.90;;;;;;6237467;23;20293;-63
2023/12/17 01:38:13;;;;;;;15.10;11.15;;;11.10;99.90;;;;;;6238329;23;20008;-63
2023/12/17 01:40:59;;;;;;;17.50;11.90;;;11.10;99.90;;;;;;6215506;23;20062;-63
2023/12/17 01:43:45;;;;;;;17.33;11.95;;;11.10;99.90;;;;;;6237773;23;20012;-63
2023/12/17 01:46:31;;;;;;;18.45;12.10;;;11.10;99.90;;;;;;6240846;23;20020;-63
2023/12/17 01:49:18;;;;;;;18.92;12.13;;;11.10;99.90;;;;;;6237041;23;20105;-63
2023/12/17 01:52:05;;;;;;;19.58;11.38;;;11.10;99.90;;;;;;6237870;23;20012;-63
2023/12/17 01:54:50;;;;;;;16.85;12.40;;;11.10;99.90;;;;;;6238609;23;20008;-63
2023/12/17 01:57:36;;;;;;;18.23;11.90;;;11.10;99.90;;;;;;6238344;23;20035;-63
2023/12/17 02:00:24;;;;;;;14.63;11.32;;;11.10;99.90;;;;;;6237299;23;20012;-63
2023/12/17 02:03:10;;;;;;;18.50;12.00;;;11.10;99.90;;;;;;6237531;23;20004;-63
2023/12/17 02:05:56;;;;;;;16.25;12.25;;;11.10;99.90;;;;;;6238084;23;20491;-63
2023/12/17 02:08:42;;;;;;;17.35;11.52;;;11.10;99.90;;;;;;6236757;23;20097;-63
2023/12/17 02:11:28;;;;;;;18.13;11.52;;;11.10;99.90;;;;;;6240720;22;20008;-62
2023/12/17 02:14:14;;;;;;;18.52;12.98;;;11.10;99.90;;;;;;6237586;23;20039;-62
2023/12/17 02:17:00;;;;;;;16.50;11.55;;;11.10;99.90;;;;;;6236972;23;20459;-62
2023/12/17 02:19:46;;;;;;;16.05;11.43;;;11.20;99.90;;;;;;6237820;23;20008;-64
2023/12/17 02:22:34;;;;;;;17.65;11.73;;;11.10;99.90;;;;;;6238498;23;20367;-64
2023/12/17 02:25:20;;;;;;;16.05;11.10;;;11.20;99.90;;;;;;6237297;23;20065;-64
2023/12/17 02:28:06;;;;;;;16.15;11.32;;;11.10;99.90;;;;;;6237936;23;20091;-64
2023/12/17 02:30:52;;;;;;;17.23;11.35;;;11.20;99.90;;;;;;6238663;23;20006;-64
2023/12/17 02:33:37;;;;;;;17.77;12.57;;;11.20;99.90;;;;;;6237847;23;20020;-64
2023/12/17 02:36:23;;;;;;;16.52;11.23;;;11.20;99.90;;;;;;6239129;23;20035;-64
2023/12/17 02:39:09;;;;;;;16.17;10.57;;;11.20;99.90;;;;;;6238092;23;20372;-64
2023/12/17 02:41:55;;;;;;;14.70;10.70;;;11.20;99.90;;;;;;6215904;23;20415;-64
2023/12/17 02:44:41;;;;;;;17.00;12.35;;;11.10;99.90;;;;;;6236862;23;20099;-69
2023/12/17 02:47:27;;;;;;;15.50;11.25;;;11.20;99.90;;;;;;6237423;23;20099;-69
2023/12/17 02:50:13;;;;;;;16.35;11.20;;;11.10;99.90;;;;;;6237116;23;20009;-71
2023/12/17 02:52:59;;;;;;;14.80;11.20;;;11.10;99.90;;;;;;6237033;23;20134;-69
2023/12/17 02:55:45;;;;;;;16.80;11.23;;;11.10;99.90;;;;;;6237527;23;20390;-71
2023/12/17 02:58:32;;;;;;;17.05;11.82;;;11.20;99.90;;;;;;6238891;23;20008;-68
2023/12/17 03:01:17;;;;;;;15.45;11.38;;;11.20;99.90;;;;;;6217890;23;20004;-69
2023/12/17 03:04:04;;;;;;;15.70;10.80;;;11.20;99.90;;;;;;6236299;23;20011;-69
2023/12/17 03:06:50;;;;;;;19.90;12.60;;;11.30;99.90;;;;;;6239575;23;20012;-69
2023/12/17 03:09:36;;;;;;;17.20;11.63;;;11.30;99.90;;;;;;6239548;23;20459;-68
2023/12/17 03:12:22;;;;;;;17.23;11.77;;;11.30;99.90;;;;;;6239151;23;21871;-68
2023/12/17 03:15:08;;;;;;;17.38;12.02;;;11.30;99.90;;;;;;6239555;23;20039;-68
2023/12/17 03:17:54;;;;;;;14.85;11.07;;;11.30;99.90;;;;;;6240001;23;20012;-69
2023/12/17 03:20:40;;;;;;;15.88;11.52;;;11.30;99.90;;;;;;6237110;23;20015;-69
2023/12/17 03:23:26;;;;;;;17.38;9.93;;;11.30;99.90;;;;;;6239017;23;20371;-69
2023/12/17 03:26:12;;;;;;;14.80;10.63;;;11.30;99.90;;;;;;6218546;23;20004;-69
2023/12/17 03:28:58;;;;;;;18.17;12.07;;;11.30;99.90;;;;;;6239772;23;20032;-69
2023/12/17 03:31:44;;;;;;;14.82;11.07;;;11.30;99.90;;;;;;6240563;23;20030;-69
2023/12/17 03:34:30;;;;;;;17.15;12.27;;;11.30;99.90;;;;;;6219818;23;20356;-69
2023/12/17 03:37:16;;;;;;;16.65;12.00;;;11.30;99.90;;;;;;6239271;23;20436;-70
2023/12/17 03:40:02;;;;;;;17.02;10.98;;;11.30;99.90;;;;;;6239071;23;20463;-68
2023/12/17 03:42:48;;;;;;;14.80;10.25;;;11.30;99.90;;;;;;6239572;23;20012;-68
2023/12/17 03:45:35;;;;;;;16.17;11.68;;;11.30;99.90;;;;;;6237811;23;20091;-68
2023/12/17 03:48:21;;;;;;;16.17;10.13;;;11.30;99.90;;;;;;6220048;23;20521;-69
2023/12/17 03:51:07;;;;;;;17.15;12.00;;;11.30;99.90;;;;;;6239080;23;20320;-69
2023/12/17 03:53:53;;;;;;;15.35;10.95;;;11.30;99.90;;;;;;6238768;23;20027;-69
2023/12/17 03:56:45;;;;;;;16.40;10.77;;;11.30;99.90;;;;;;6239116;23;20099;-69
2023/12/17 03:59:31;;;;;;;15.10;11.02;;;11.40;99.90;;;;;;6215538;23;20039;-69
2023/12/17 04:02:17;;;;;;;15.57;11.00;;;11.30;99.90;;;;;;6239552;23;20316;-69
2023/12/17 04:05:03;;;;;;;17.33;11.07;;;11.30;99.90;;;;;;6219257;23;20004;-68
2023/12/17 04:07:49;;;;;;;16.48;11.98;;;11.40;99.90;;;;;;6237859;23;20023;-69
2023/12/17 04:10:35;;;;;;;16.17;11.80;;;11.30;99.90;;;;;;6239761;23;20015;-69
2023/12/17 04:13:21;;;;;;;18.42;11.50;;;11.40;99.90;;;;;;6217844;23;20286;-68
2023/12/17 04:16:07;;;;;;;16.00;10.52;;;11.30;99.90;;;;;;6238517;23;20087;-68
2023/12/17 04:18:53;;;;;;;16.20;10.80;;;11.30;99.90;;;;;;6239173;23;20034;-68
2023/12/17 04:21:39;;;;;;;14.73;10.73;;;11.30;99.90;;;;;;6219630;23;20027;-69
2023/12/17 04:24:25;;;;;;;17.85;11.70;;;11.30;99.90;;;;;;6238862;23;20012;-68
2023/12/17 04:27:11;;;;;;;16.75;11.38;;;11.30;99.90;;;;;;6239603;23;20008;-68
2023/12/17 04:29:57;;;;;;;15.70;11.13;;;11.30;99.90;;;;;;6238585;23;20020;-69
2023/12/17 04:32:42;;;;;;;18.65;11.02;;;11.30;99.90;;;;;;6237690;23;20027;-69
2023/12/17 04:35:28;;;;;;;18.55;10.77;;;11.30;99.90;;;;;;6237878;23;20530;-69
2023/12/17 04:38:16;;;;;;;14.70;10.82;;;11.30;99.90;;;;;;6240028;23;20012;-68
2023/12/17 04:41:02;;;;;;;14.70;11.00;;;11.30;99.90;;;;;;6237558;23;20012;-68
2023/12/17 04:43:48;;;;;;;16.48;11.55;;;11.30;99.90;;;;;;6239124;23;20008;-67
2023/12/17 04:46:34;;;;;;;14.93;9.98;;;11.30;99.90;;;;;;6237949;23;20024;-67
2023/12/17 04:49:20;;;;;;;15.35;10.57;;;11.30;99.90;;;;;;6218416;23;20015;-67
2023/12/17 04:52:06;;;;;;;18.23;11.32;;;11.40;99.90;;;;;;6238118;23;20012;-67
2023/12/17 04:54:52;;;;;;;16.98;11.60;;;11.40;99.90;;;;;;6238109;23;20023;-67
2023/12/17 04:57:38;;;;;;;15.25;10.65;;;11.40;99.90;;;;;;6219050;23;20435;-67
2023/12/17 05:00:24;;;;;;;17.52;11.43;;;11.40;99.90;;;;;;6238302;23;20013;-67
2023/12/17 05:03:10;;;;;;;14.43;10.80;;;11.40;99.90;;;;;;6238589;23;20074;-67
2023/12/17 05:05:56;;;;;;;15.25;9.90;;;11.40;99.90;;;;;;6239611;23;20046;-67
2023/12/17 05:08:42;;;;;;;15.45;10.93;;;11.40;99.90;;;;;;6236848;23;20454;-67
2023/12/17 05:11:27;;;;;;;16.05;11.60;;;11.40;99.90;;;;;;6237648;23;20422;-67
2023/12/17 05:14:13;;;;;;;14.27;11.00;;;11.40;99.90;;;;;;6237916;23;20370;-67
2023/12/17 05:17:00;;;;;;;15.77;10.57;;;11.40;99.90;;;;;;6237089;23;20440;-67
2023/12/17 05:19:46;;;;;;;17.20;11.55;;;11.40;99.90;;;;;;6237699;23;20066;-67
2023/12/17 05:22:32;;;;;;;14.65;10.15;;;11.50;99.90;;;;;;6237157;23;20027;-67
2023/12/17 05:25:17;;;;;;;14.65;10.68;;;11.50;99.90;;;;;;6237634;23;20057;-68
2023/12/17 05:28:03;;;;;;;17.10;10.50;;;11.50;99.90;;;;;;6238522;23;20016;-68
2023/12/17 05:30:49;;;;;;;14.85;9.95;;;11.50;99.90;;;;;;6238670;23;20096;-68
2023/12/17 05:33:35;;;;;;;13.05;9.77;;;11.50;99.90;;;;;;6238370;23;20054;-68
2023/12/17 05:36:21;;;;;;;15.65;10.40;;;11.50;99.90;;;;;;6239079;23;20087;-68
2023/12/17 05:39:07;;;;;;;15.85;9.57;;;11.50;99.90;;;;;;6237773;23;20607;-68
2023/12/17 05:41:53;;;;;;;14.30;10.43;;;11.50;99.90;;;;;;6237963;23;20408;-68
2023/12/17 05:44:39;;;;;;;16.15;10.75;;;11.50;99.90;;;;;;6238051;23;20024;-68
2023/12/17 05:47:25;;;;;;;14.02;10.00;;;11.50;99.90;;;;;;6239615;23;20447;-68
2023/12/17 05:50:11;;;;;;;13.15;9.77;;;11.50;99.90;;;;;;6237778;23;20042;-68
2023/12/17 05:52:57;;;;;;;14.60;9.88;;;11.50;99.90;;;;;;6237777;23;20031;-68
2023/12/17 05:55:43;;;;;;;13.27;9.73;;;11.50;99.90;;;;;;6236853;23;20012;-68
2023/12/17 05:58:29;;;;;;;13.43;9.38;;;11.50;99.90;;;;;;6237397;23;20375;-68
2023/12/17 06:01:15;;;;;;;12.80;9.35;;;11.50;99.90;;;;;;6236800;23;20358;-68
2023/12/17 06:04:01;;;;;;;14.15;10.02;;;11.50;99.90;;;;;;6239036;23;20012;-68
2023/12/17 06:06:47;;;;;;;17.23;9.85;;;11.50;99.90;;;;;;6236893;23;20008;-68
2023/12/17 06:09:33;;;;;;;11.48;8.93;;;11.50;99.90;;;;;;6236993;23;20066;-68
2023/12/17 06:12:19;;;;;;;13.30;9.25;;;11.50;99.90;;;;;;6238200;23;20077;-68
2023/12/17 06:15:05;;;;;;;13.52;9.05;;;11.50;99.90;;;;;;6237540;23;20012;-68
2023/12/17 06:17:51;;;;;;;14.93;10.23;;;11.50;99.90;;;;;;6236513;23;20047;-68
2023/12/17 06:20:37;;;;;;;13.80;8.95;;;11.50;99.90;;;;;;6238339;23;20459;-68
2023/12/17 06:23:23;;;;;;;13.43;8.63;;;11.50;99.90;;;;;;6237443;23;20406;-68
2023/12/17 06:26:09;;;;;;;13.05;9.65;;;11.50;99.90;;;;;;6218722;23;20016;-68
2023/12/17 06:28:55;;;;;;;13.20;9.52;;;11.50;99.90;;;;;;6237825;23;20083;-68
2023/12/17 06:31:41;;;;;;;20.67;9.68;;;11.50;99.90;;;;;;6238371;23;20136;-68
2023/12/17 06:34:27;;;;;;;10.85;8.98;;;11.50;99.90;;;;;;6237043;23;20051;-68
2023/12/17 06:37:13;;;;;;;12.18;8.68;;;11.50;99.90;;;;;;6238056;23;20008;-68
2023/12/17 06:39:59;;;;;;;13.25;9.57;;;11.50;99.90;;;;;;6238077;23;20394;-68
2023/12/17 06:42:44;;;;;;;11.13;8.38;;;11.40;99.90;;;;;;6239789;23;20004;-68
2023/12/17 06:45:30;;;;;;;13.43;8.70;;;11.50;99.90;;;;;;6240181;23;20095;-68
2023/12/17 06:48:16;;;;;;;12.27;8.00;;;11.50;99.90;;;;;;6240544;23;20017;-68
2023/12/17 06:51:03;;;;;;;17.20;8.82;;;11.50;99.90;;;;;;6240327;23;20450;-68
2023/12/17 06:53:49;;;;;;;11.52;8.07;;;11.50;99.90;;;;;;6237557;23;20024;-67
2023/12/17 06:56:35;;;;;;;13.63;8.57;;;11.50;99.90;;;;;;6238574;23;20363;-72
2023/12/17 06:59:21;;;;;;;12.85;8.20;;;11.50;99.90;;;;;;6237716;23;20522;-71
2023/12/17 07:02:07;;;;;;;13.57;8.95;;;11.50;99.90;;;;;;6239090;23;20042;-72
2023/12/17 07:04:53;;;;;;;13.90;8.23;;;11.50;99.90;;;;;;6239540;23;20008;-69
2023/12/17 07:07:39;;;;;;;10.90;8.25;;;11.50;99.90;;;;;;6239876;23;20537;-68
2023/12/17 07:10:25;;;;;;;11.55;7.75;;;11.50;99.90;;;;;;6238278;23;20004;-68
2023/12/17 07:13:11;;;;;;;10.05;7.30;;;11.50;99.90;;;;;;6216651;23;20020;-68
2023/12/17 07:15:56;;;;;;;11.25;8.43;;;11.50;99.90;;;;;;6239340;23;20051;-68
2023/12/17 07:18:42;;;;;;;11.07;7.72;;;11.50;99.90;;;;;;6239396;23;20066;-68
2023/12/17 07:21:28;;;;;;;13.75;8.93;;;11.50;99.90;;;;;;6219557;23;20019;-68
2023/12/17 07:24:14;;;;;;;12.02;8.15;;;11.50;99.90;;;;;;6217548;23;20066;-68
2023/12/17 07:27:00;;;;;;;11.07;8.27;;;11.50;99.90;;;;;;6239031;23;20083;-68
2023/12/17 07:29:47;;;;;;;11.60;8.07;;;11.50;99.90;;;;;;6239230;23;20019;-68
2023/12/17 07:32:32;;;;;;;9.63;6.95;;;11.50;99.90;;;;;;6239137;23;22291;-68
2023/12/17 07:35:18;;;;;;;10.60;8.00;;;11.60;99.90;;;;;;6238936;23;20123;-68
2023/12/17 07:38:04;;;;;;;11.52;7.47;;;11.60;99.90;;;;;;6219895;23;20004;-68
2023/12/17 07:40:50;;;;;;;11.73;7.90;;;11.50;99.90;;;;;;6239686;23;20008;-68
2023/12/17 07:43:36;;;;;;;10.13;7.70;;;11.60;99.90;;;;;;6239513;23;20031;-68
2023/12/17 07:46:22;;;;;;;10.68;6.93;;;11.60;99.90;;;;;;6238456;23;20418;-68
2023/12/17 07:49:08;;;;;;;11.95;7.93;;;11.60;99.90;;;;;;6239139;23;20090;-68
2023/12/17 07:51:54;;;;;;;10.55;8.10;;;11.60;99.90;;;;;;6217685;23;20012;-67
2023/12/17 07:54:40;;;;;;;9.63;7.30;;;11.60;99.90;;;;;;6237958;23;20020;-67
2023/12/17 07:57:26;;;;;;;10.55;7.13;;;11.60;99.90;;;;;;6239281;23;20459;-67
2023/12/17 08:00:12;;;;;;;9.68;7.07;;;11.60;99.90;;;;;;6238262;23;20016;-68
2023/12/17 08:02:58;;;;;;;9.60;6.53;;;11.60;99.90;;;;;;6238476;23;20007;-67
2023/12/17 08:05:44;;;;;;;11.77;7.70;;;11.70;99.90;;;;;;6238327;23;20070;-67
2023/12/17 08:08:30;;;;;;;10.40;6.97;;;11.70;99.90;;;;;;6238299;23;20012;-67
2023/12/17 08:11:16;;;;;;;10.27;7.13;;;11.70;99.90;;;;;;6238483;23;20008;-67
2023/12/17 08:14:03;;;;;;;9.52;7.35;;;11.70;99.90;;;;;;6238269;23;20028;-68
2023/12/17 08:16:49;;;;;;;9.85;6.68;;;11.70;99.90;;;;;;6237425;23;20430;-68
2023/12/17 08:19:35;;;;;;;9.18;6.47;;;11.70;99.90;;;;;;6238750;23;20466;-68
2023/12/17 08:22:21;;;;;;;8.38;6.35;;;11.70;99.90;;;;;;6239139;23;20451;-69
2023/12/17 08:25:07;;;;;;;8.20;6.38;;;11.70;99.90;;;;;;6237502;23;20379;-68
2023/12/17 08:27:53;;;;;;;9.02;5.88;;;11.70;99.90;;;;;;6238965;23;20099;-68
2023/12/17 08:30:39;;;;;;;8.35;6.10;;;11.70;99.90;;;;;;6238365;23;20019;-67
2023/12/17 08:33:25;;;;;;;8.82;6.93;;;11.70;99.90;;;;;;6238666;23;20016;-69
2023/12/17 08:36:11;;;;;;;8.80;6.28;;;11.70;99.90;;;;;;6237888;23;20008;-69
2023/12/17 08:38:57;;;;;;;10.55;6.90;;;11.70;99.90;;;;;;6238549;23;20019;-68
2023/12/17 08:41:43;;;;;;;7.93;5.65;;;11.80;99.90;;;;;;6217317;23;20004;-67
2023/12/17 08:44:29;;;;;;;9.85;6.47;;;11.80;99.90;;;;;;6239541;23;20035;-67
2023/12/17 08:47:15;;;;;;;10.13;6.20;;;11.80;99.90;;;;;;6238776;23;20060;-68
2023/12/17 08:50:02;;;;;;;7.93;5.78;;;11.80;99.90;;;;;;6238219;23;20085;-67
2023/12/17 08:52:48;;;;;;;8.00;5.90;;;11.80;99.90;;;;;;6236684;23;20283;-67
2023/12/17 08:55:34;;;;;;;8.95;6.22;;;11.80;99.90;;;;;;6238818;23;20095;-67
2023/12/17 08:58:20;;;;;;;10.02;6.47;;;11.80;99.90;;;;;;6236831;23;20358;-65
2023/12/17 09:01:06;;;;;;;9.25;6.40;;;11.80;99.90;;;;;;6236027;23;20012;-64
2023/12/17 09:03:52;;;;;;;9.90;6.80;;;11.70;99.90;;;;;;6237090;23;20004;-66
2023/12/17 09:06:44;;;;;;;8.13;5.93;;;11.80;99.90;;;;;;6238616;23;20011;-66
2023/12/17 09:09:30;;;;;;;10.52;6.15;;;11.70;99.90;;;;;;6238211;23;20015;-66
2023/12/17 09:12:16;;;;;;;13.63;6.72;;;11.80;99.90;;;;;;6236029;23;20016;-67
2023/12/17 09:15:03;;;;;;;13.95;6.68;;;11.80;99.90;;;;;;6238696;23;20024;-67
2023/12/17 09:17:49;;;;;;;9.23;6.50;;;11.80;99.90;;;;;;6238552;23;20183;-67
2023/12/17 09:20:35;;;;;;;9.50;6.70;;;11.80;99.90;;;;;;6216936;23;20014;-67
2023/12/17 09:23:21;;;;;;;11.50;5.95;;;11.90;99.90;;;;;;6238376;23;20008;-65
2023/12/17 09:26:07;;;;;;;10.07;5.78;;;11.80;99.90;;;;;;6238636;23;20023;-68
2023/12/17 09:28:53;;;;;;;10.65;5.78;;;11.90;99.90;;;;;;6213333;23;20012;-64
2023/12/17 09:31:39;;;;;;;10.52;6.30;;;11.90;99.90;;;;;;6237781;23;20016;-66
2023/12/17 09:34:25;;;;;;;7.68;5.28;;;11.90;99.90;;;;;;6237979;23;20023;-65
2023/12/17 09:37:11;;;;;;;7.63;5.68;;;11.90;99.90;;;;;;6238608;23;20087;-65
2023/12/17 09:39:57;;;;;;;8.60;5.93;;;12.00;99.90;;;;;;6238472;23;20008;-66
2023/12/17 09:42:44;;;;;;;8.70;6.32;;;12.00;99.90;;;;;;6238756;23;20019;-66
2023/12/17 09:45:30;;;;;;;8.50;5.72;;;12.00;99.90;;;;;;6235772;23;20051;-66
2023/12/17 09:48:19;;;;;;;8.27;5.75;;;12.00;99.90;;;;;;6237358;23;20008;-66
2023/12/17 09:51:05;;;;;;;7.57;5.75;;;12.00;99.90;;;;;;6238093;23;20042;-65
2023/12/17 09:53:52;;;;;;;8.50;6.00;;;12.00;99.90;;;;;;6237282;23;20082;-66
2023/12/17 09:56:38;;;;;;;8.05;5.82;;;12.00;99.90;;;;;;6238011;23;20036;-66
2023/12/17 09:59:24;;;;;;;10.50;6.50;;;12.00;99.90;;;;;;6236067;23;20008;-65
2023/12/17 10:02:16;;;;;;;8.10;5.00;;;12.10;99.90;;;;;;6235414;23;20004;-66
2023/12/17 10:05:02;;;;;;;6.97;4.93;;;12.10;99.90;;;;;;6238414;23;20011;-67
2023/12/17 10:07:48;;;;;;;6.95;4.97;;;12.10;99.90;;;;;;6237529;23;20012;-67
2023/12/17 10:10:34;;;;;;;6.25;5.00;;;12.10;99.90;;;;;;6238496;23;20411;-67
2023/12/17 10:13:22;;;;;;;7.82;5.55;;;12.10;99.90;;;;;;6238962;23;20028;-67
2023/12/17 10:16:08;;;;;;;6.68;5.00;;;12.10;99.90;;;;;;6238828;23;20051;-66
2023/12/17 10:18:54;;;;;;;6.78;4.93;;;12.20;99.90;;;;;;6237590;23;20012;-67
2023/12/17 10:21:40;;;;;;;7.03;5.13;;;12.20;99.90;;;;;;6237324;23;20009;-70
2023/12/17 10:24:37;;;;;;;6.93;5.30;;;12.20;99.90;;;;;;6235612;23;20012;-70
2023/12/17 10:27:22;;;;;;;7.53;5.30;;;12.20;99.90;;;;;;6236840;23;20019;-69
2023/12/17 10:30:09;;;;;;;7.47;5.07;;;12.30;99.90;;;;;;6239945;23;20075;-71
2023/12/17 10:32:56;;;;;;;6.85;4.90;;;12.20;99.90;;;;;;6237444;23;20020;-71
2023/12/17 10:35:42;;;;;;;6.68;5.00;;;12.30;99.90;;;;;;6238645;23;20074;-70
2023/12/17 10:38:29;;;;;;;8.57;5.20;;;12.30;99.90;;;;;;6238952;23;20371;-70
2023/12/17 10:41:16;;;;;;;6.05;4.63;;;12.40;99.90;;;;;;6238055;23;20087;-70
2023/12/17 10:44:04;;;;;;;10.30;5.35;;;12.40;99.90;;;;;;6237282;23;20008;-70
2023/12/17 10:46:52;;;;;;;7.60;4.85;;;12.40;99.90;;;;;;6237374;23;20024;-69
2023/12/17 10:49:38;;;;;;;6.35;4.90;;;12.40;99.90;;;;;;6238188;23;20036;-68
2023/12/17 10:52:25;;;;;;;7.75;5.03;;;12.30;99.90;;;;;;6235159;23;20013;-69
2023/12/17 10:55:11;;;;;;;8.02;5.47;;;12.40;99.90;;;;;;6237953;23;20035;-69
2023/12/17 10:58:01;;;;;;;7.38;4.85;;;12.40;99.90;;;;;;6236360;23;20004;-69
2023/12/17 11:00:48;;;;;;;7.15;5.10;;;12.40;99.90;;;;;;6236141;23;20039;-69
2023/12/17 11:03:35;;;;;;;7.18;4.57;;;12.40;99.90;;;;;;6234703;23;20009;-69
2023/12/17 11:06:21;;;;;;;6.57;5.18;;;12.40;99.90;;;;;;6234552;23;20063;-69
2023/12/17 11:09:08;;;;;;;6.63;4.72;;;12.40;99.90;;;;;;6236663;23;20088;-68
2023/12/17 11:11:54;;;;;;;6.25;4.50;;;12.40;99.90;;;;;;6235422;23;20427;-69
2023/12/17 11:14:44;;;;;;;6.47;4.80;;;12.40;99.90;;;;;;6234383;23;20103;-69
2023/12/17 11:17:30;;;;;;;12.95;5.20;;;12.40;99.90;;;;;;6217133;23;20450;-69
2023/12/17 11:20:16;;;;;;;6.97;4.95;;;12.40;99.90;;;;;;6236280;23;20019;-68
2023/12/17 11:23:04;;;;;;;6.05;4.57;;;12.40;99.90;;;;;;6236176;23;20448;-68
2023/12/17 11:25:54;;;;;;;7.70;5.20;;;12.40;99.90;;;;;;6234566;23;20027;-68
2023/12/17 11:28:40;;;;;;;6.95;4.97;;;12.40;99.90;;;;;;6239435;23;20007;-69
2023/12/17 11:31:26;;;;;;;5.90;4.70;;;12.40;99.90;;;;;;6237450;23;20019;-65
2023/12/17 11:34:12;;;;;;;6.50;4.95;;;12.40;99.90;;;;;;6218480;23;20063;-65
2023/12/17 11:36:59;;;;;;;10.20;5.68;;;12.50;99.90;;;;;;6235540;23;20478;-65
2023/12/17 11:39:49;;;;;;;6.25;4.72;;;12.40;99.90;;;;;;6239291;23;20352;-64
2023/12/17 11:42:40;;;;;;;6.82;5.13;;;12.40;99.90;;;;;;6237139;23;20008;-64
2023/12/17 11:45:43;;;;;;;7.15;4.88;;;12.40;99.90;;;;;;6219755;23;20078;-64
2023/12/17 11:48:31;;;;;;;7.07;5.63;;;12.40;99.90;;;;;;6240470;23;20043;-64
2023/12/17 11:51:25;;;;;;;7.32;5.00;;;12.40;99.90;;;;;;6237136;23;20043;-64
2023/12/17 11:54:20;;;;;;;6.55;4.35;;;12.50;99.90;;;;;;6237072;23;20070;-64
2023/12/17 11:57:25;;;;;;;8.13;4.97;;;12.50;99.90;;;;;;6237760;23;20000;-64
2023/12/17 12:00:14;;;;;;;7.22;4.95;;;12.50;99.90;;;;;;6239239;23;20015;-65
2023/12/17 12:03:00;;;;;;;6.15;4.32;;;12.50;99.90;;;;;;6238742;23;20028;-65
2023/12/17 12:05:47;;;;;;;6.07;4.75;;;12.50;99.90;;;;;;6238802;23;20094;-64
2023/12/17 12:08:34;;;;;;;5.90;4.40;;;12.50;99.90;;;;;;6238569;23;20015;-65
2023/12/17 12:11:28;;;;;;;5.53;4.20;;;12.50;99.90;;;;;;6236292;23;20545;-65
2023/12/17 12:14:14;;;;;;;6.40;4.70;;;12.50;99.90;;;;;;6239017;23;20019;-65
2023/12/17 12:17:00;;;;;;;6.18;4.60;;;12.50;99.90;;;;;;6239092;23;20280;-65
2023/12/17 12:19:49;;;;;;;6.80;4.72;;;12.50;99.90;;;;;;6239167;23;20008;-64
2023/12/17 12:22:37;;;;;;;7.20;5.15;;;12.50;99.90;;;;;;6239451;23;20008;-64
2023/12/17 12:25:23;;;;;;;7.45;4.57;;;12.50;99.90;;;;;;6238519;23;20392;-65
2023/12/17 12:28:20;;;;;;;6.82;5.00;;;12.50;99.90;;;;;;6238993;23;20151;-69
2023/12/17 12:31:09;;;;;;;7.25;4.60;;;12.50;99.90;;;;;;6239438;23;20054;-69
2023/12/17 12:33:56;;;;;;;7.00;5.30;;;12.50;99.90;;;;;;6238076;23;20098;-69
2023/12/17 12:36:47;;;;;;;7.05;4.68;;;12.50;99.90;;;;;;6238625;23;20447;-70
2023/12/17 12:39:45;;;;;;;7.47;5.30;;;12.50;99.90;;;;;;6217461;23;20044;-69
2023/12/17 12:42:35;;;;;;;8.40;5.60;;;12.50;99.90;;;;;;6239674;23;20540;-69
2023/12/17 12:45:21;;;;;;;5.70;3.92;;;12.50;99.90;;;;;;6237843;23;20020;-69
2023/12/17 12:48:19;;;;;;;6.20;4.72;;;12.40;99.90;;;;;;6237469;23;20008;-70
2023/12/17 12:51:06;;;;;;;10.43;5.40;;;12.40;99.90;;;;;;6238559;23;20382;-69
2023/12/17 12:53:52;;;;;;;7.80;5.30;;;12.40;99.90;;;;;;6238412;23;20024;-70
2023/12/17 12:56:38;;;;;;;7.03;4.82;;;12.30;99.90;;;;;;6219221;23;20069;-69
2023/12/17 12:59:23;;;;;;;7.13;4.80;;;12.30;99.90;;;;;;6218851;23;20008;-69
2023/12/17 13:02:10;;;;;;;7.72;4.93;;;12.30;99.90;;;;;;6238127;23;20016;-69
2023/12/17 13:04:55;;;;;;;7.80;5.07;;;12.30;99.90;;;;;;6237384;23;20012;-69
2023/12/17 13:07:41;;;;;;;5.90;4.82;;;12.30;99.90;;;;;;6218973;23;20091;-70
2023/12/17 13:10:27;;;;;;;8.82;6.28;;;12.30;99.90;;;;;;6239219;23;20005;-70
2023/12/17 13:13:13;;;;;;;11.07;5.55;;;12.30;99.90;;;;;;6216743;23;20484;-69
2023/12/17 13:15:59;;;;;;;7.90;5.25;;;12.20;99.90;;;;;;6236393;23;20016;-70
2023/12/17 13:18:45;;;;;;;7.10;4.88;;;12.30;99.90;;;;;;6238602;23;20077;-70
2023/12/17 13:21:31;;;;;;;7.75;4.85;;;12.20;99.90;;;;;;6238411;23;20012;-69
2023/12/17 13:24:17;;;;;;;9.23;5.60;;;12.20;99.90;;;;;;6237853;23;20474;-65
2023/12/17 13:27:03;;;;;;;8.15;5.40;;;12.20;99.90;;;;;;6238512;23;20010;-65
2023/12/17 13:29:49;;;;;;;7.57;4.75;;;12.20;99.90;;;;;;6239156;23;20052;-64
2023/12/17 13:32:36;;;;;;;6.72;4.63;;;12.20;99.90;;;;;;6238364;23;20004;-65
2023/12/17 13:35:22;;;;;;;6.88;5.07;;;12.20;99.90;;;;;;6238187;23;20444;-65
2023/12/17 13:38:09;;;;;;;6.75;4.68;;;12.20;99.90;;;;;;6237791;23;20074;-65
2023/12/17 13:40:56;;;;;;;5.95;4.32;;;12.20;99.90;;;;;;6240639;23;20015;-65
2023/12/17 13:43:42;;;;;;;5.75;3.67;;;12.10;99.90;;;;;;6238915;23;20069;-65
2023/12/17 13:46:28;;;;;;;5.78;4.20;;;12.10;99.90;;;;;;6239321;23;20024;-65
2023/12/17 13:49:14;;;;;;;6.65;4.18;;;12.10;99.90;;;;;;6237322;23;20040;-65
2023/12/17 13:52:00;;;;;;;8.73;5.07;;;12.10;99.90;;;;;;6238273;23;20489;-65
2023/12/17 13:54:46;;;;;;;6.40;4.97;;;12.10;99.90;;;;;;6238206;23;20103;-65
2023/12/17 13:57:32;;;;;;;6.78;4.95;;;12.00;99.90;;;;;;6236245;23;20382;-65
2023/12/17 14:00:19;;;;;;;5.75;4.30;;;12.00;99.90;;;;;;6238477;23;20012;-65
2023/12/17 14:03:06;;;;;;;7.38;4.57;;;12.00;99.90;;;;;;6238235;23;20012;-65
2023/12/17 14:05:54;;;;;;;5.90;4.10;;;12.00;99.90;;;;;;6240388;23;20047;-65
2023/12/17 14:08:40;;;;;;;7.45;4.70;;;12.00;99.90;;;;;;6240537;23;20070;-70
2023/12/17 14:11:27;;;;;;;7.57;4.65;;;12.00;99.90;;;;;;6237684;23;20004;-69
2023/12/17 14:14:13;;;;;;;5.65;4.90;;;12.00;99.90;;;;;;6238342;23;20099;-69